Notice: Undefined index: language in /home/u908952976/domains/airgaviota-va.com/public_html/vam/index.php on line 25
AirGaviota-VA

... VIRTUAL FLIGHT...OUR PASSION



 FLIGHT DETAILS
Pilot: GVT462 Peter Voksan Aircraft: REDEYES - ANTONOV AN-2 (32V_64B) AN-2-GAVIOTAAIRVAAEROTAXI Distance: 39NM
Departure MUCU Arrival MUGM Duration 00:30
Validation Validated Type Regular Tail Number GV-AET
ZFW 4085 Block Fuel/Initial FOB 59/0 Flight Fuel 45
Passengers 9 Cargo 1700 Alternate MUGT
Departure Time Cruise Speed 100 Flight Level 55
Flight Type VFR Aircraft Type AN2 Weight Unit Kg
Date 19-06-2020 Pilot Comments Network IVAO
Crashed No Validator Comments Flight Rating 70

 ROUTE
ROUTE DCT
REMARKS AIRGAVIOTA AEROTAXI VFR TOUR LEG10.
 FLIGHT FAILURES
Crashed OK Beacon off & Engine Running Fail KIAS Above 250 below 10000 FT OK
Lights OFF below 10000 FT OK Lights ON above 10000 FT OK Stall OK
Overspeed OK Flight paused OK Refueling OK
Slew detected OK Taxi & Taxi lights off OK Take off & lights off OK
Landing & lights off OK Landed in not planned airport OK Taxi Speed OK
Wrong altimeter in Take off Fail Wrong altimeter in Landing OK
 LANDING ANALYSIS
Landing wind 225º/3 kt Landing heading 304
Landing VS: -51.52 ft/min Landing IAS: 53.8 kt
Landing Force G 1.2 G Landing Bank -0.5
Landing Pitch 1.9 Landing Flaps 0
Navigation Lights ON Landing Lights ON
Beacon Lights OFF Strobe Lights OFF
 FLIGHT MAP
 ALTITUDE CHART
 FLIGHT FINANCIAL REPORT
Cargo:1700 .Price per Cargo Unit:12 20,400.00
Number of PAX:9 .Price per PAX:100 900.00
TOTAL 21,300.00
 MAIN EVENTS
DATE EVENTIASALTITUDE
2020-06-19 16:55:42 SIM ACARS version 1.4.12259
2020-06-19 16:55:43 BOARDING2259
2020-06-19 16:59:59 STARTING ENGINE 1 2259
2020-06-19 17:00:00 BEACON LIGHT OFF & ENGINE ON2259
2020-06-19 17:03:53 FLAPS EXTENSION 1 % 0259
2020-06-19 17:03:53 FLAPS EXTENSION 4 % 1259
2020-06-19 17:03:53 FLAPS EXTENSION 5 % 1259
2020-06-19 17:03:53 FLAPS EXTENSION 6 % 1259
2020-06-19 17:03:54 FLAPS EXTENSION 8 % 1259
2020-06-19 17:03:54 FLAPS EXTENSION 10 % 1259
2020-06-19 17:03:54 FLAPS EXTENSION 12 % 1259
2020-06-19 17:03:54 FLAPS EXTENSION 14 % 1259
2020-06-19 17:03:54 FLAPS EXTENSION 17 % 1259
2020-06-19 17:03:55 FLAPS EXTENSION 20 % 1259
2020-06-19 17:03:55 FLAPS EXTENSION 24 % 1259
2020-06-19 17:03:55 FLAPS EXTENSION 27 % 1259
2020-06-19 17:03:55 FLAPS EXTENSION 30 % 0259
2020-06-19 17:03:56 FLAPS EXTENSION 33 % 0259
2020-06-19 17:03:56 FLAPS EXTENSION 35 % 1259
2020-06-19 17:03:56 FLAPS EXTENSION 36 % 1259
2020-06-19 17:03:56 FLAPS EXTENSION 38 % 1259
2020-06-19 17:04:35 TAXI TO THE RWY 12259
2020-06-19 17:08:47 TAKE OFF45260
2020-06-19 17:09:15 FLAPS EXTENSION 36 % 44429
2020-06-19 17:09:15 FLAPS EXTENSION 34 % 44430
2020-06-19 17:09:15 FLAPS EXTENSION 32 % 44431
2020-06-19 17:09:15 FLAPS EXTENSION 31 % 44431
2020-06-19 17:10:09 FLAPS EXTENSION 29 % 53708
2020-06-19 17:10:09 FLAPS EXTENSION 26 % 53709
2020-06-19 17:10:09 FLAPS EXTENSION 25 % 54710
2020-06-19 17:10:09 FLAPS EXTENSION 22 % 54711
2020-06-19 17:10:09 FLAPS EXTENSION 21 % 54712
2020-06-19 17:10:25 FLAPS EXTENSION 20 % 61786
2020-06-19 17:10:25 FLAPS EXTENSION 18 % 61788
2020-06-19 17:10:25 FLAPS EXTENSION 15 % 61789
2020-06-19 17:10:26 FLAPS EXTENSION 13 % 61790
2020-06-19 17:10:26 FLAPS EXTENSION 11 % 61791
2020-06-19 17:10:26 FLAPS EXTENSION 9 % 61792
2020-06-19 17:10:26 FLAPS EXTENSION 7 % 61793
2020-06-19 17:10:26 FLAPS EXTENSION 5 % 61794
2020-06-19 17:10:26 FLAPS EXTENSION 3 % 61795
2020-06-19 17:10:26 FLAPS EXTENSION 1 % 61796
2020-06-19 17:10:27 FLAPS EXTENSION 0 % 61797
2020-06-19 17:11:47 CRUISE651210
2020-06-19 17:12:27 CLIMBING651331
2020-06-19 17:13:37 CRUISE591597
2020-06-19 17:14:27 CLIMBING681783
2020-06-19 17:20:17 CRUISE654172
2020-06-19 17:20:47 CLIMBING664365
2020-06-19 17:23:47 CRUISE715269
2020-06-19 17:29:47 DESCEND985194
2020-06-19 17:30:27 CRUISE985153
2020-06-19 17:31:37 DESCEND1014971
2020-06-19 17:33:07 CRUISE814210
2020-06-19 17:33:37 DESCEND743913
2020-06-19 17:34:48 FLAPS EXTENSION 1 % 672908
2020-06-19 17:34:48 FLAPS EXTENSION 5 % 672906
2020-06-19 17:34:48 FLAPS EXTENSION 7 % 672905
2020-06-19 17:34:48 FLAPS EXTENSION 9 % 672904
2020-06-19 17:34:49 FLAPS EXTENSION 11 % 672904
2020-06-19 17:34:49 FLAPS EXTENSION 13 % 662903
2020-06-19 17:34:49 FLAPS EXTENSION 15 % 652902
2020-06-19 17:34:49 FLAPS EXTENSION 17 % 642901
2020-06-19 17:34:49 FLAPS EXTENSION 19 % 642901
2020-06-19 17:34:49 FLAPS EXTENSION 21 % 642900
2020-06-19 17:34:49 FLAPS EXTENSION 23 % 632899
2020-06-19 17:34:50 FLAPS EXTENSION 25 % 632898
2020-06-19 17:34:50 FLAPS EXTENSION 26 % 622897
2020-06-19 17:34:50 FLAPS EXTENSION 29 % 622897
2020-06-19 17:34:50 FLAPS EXTENSION 31 % 622896
2020-06-19 17:34:50 FLAPS EXTENSION 33 % 622895
2020-06-19 17:34:50 FLAPS EXTENSION 35 % 612894
2020-06-19 17:34:51 FLAPS EXTENSION 37 % 612893
2020-06-19 17:36:37 FLAPS EXTENSION 39 % 531069
2020-06-19 17:36:37 FLAPS EXTENSION 40 % 531067
2020-06-19 17:36:37 FLAPS EXTENSION 43 % 531066
2020-06-19 17:36:37 FLAPS EXTENSION 44 % 531064
2020-06-19 17:36:37 FLAPS EXTENSION 46 % 531062
2020-06-19 17:36:37 FLAPS EXTENSION 47 % 531061
2020-06-19 17:36:37 FLAPS EXTENSION 50 % 531059
2020-06-19 17:36:38 FLAPS EXTENSION 51 % 531057
2020-06-19 17:36:38 FLAPS EXTENSION 53 % 531055
2020-06-19 17:36:38 FLAPS EXTENSION 55 % 531053
2020-06-19 17:36:38 FLAPS EXTENSION 57 % 531051
2020-06-19 17:36:38 FLAPS EXTENSION 59 % 531050
2020-06-19 17:36:38 FLAPS EXTENSION 61 % 531047
2020-06-19 17:36:39 FLAPS EXTENSION 63 % 531045
2020-06-19 17:36:39 FLAPS EXTENSION 65 % 531043
2020-06-19 17:36:39 FLAPS EXTENSION 67 % 531041
2020-06-19 17:36:39 FLAPS EXTENSION 68 % 531039
2020-06-19 17:36:39 FLAPS EXTENSION 70 % 531038
2020-06-19 17:36:39 FLAPS EXTENSION 72 % 531036
2020-06-19 17:36:39 FLAPS EXTENSION 74 % 531034
2020-06-19 17:36:40 FLAPS EXTENSION 76 % 531031
2020-06-19 17:36:40 FLAPS EXTENSION 78 % 531030
2020-06-19 17:36:40 FLAPS EXTENSION 81 % 531027
2020-06-19 17:36:40 FLAPS EXTENSION 82 % 531026
2020-06-19 17:36:40 FLAPS EXTENSION 85 % 531024
2020-06-19 17:36:40 FLAPS EXTENSION 87 % 531022
2020-06-19 17:36:41 FLAPS EXTENSION 89 % 531020
2020-06-19 17:36:41 FLAPS EXTENSION 91 % 531018
2020-06-19 17:36:41 FLAPS EXTENSION 93 % 541016
2020-06-19 17:36:41 FLAPS EXTENSION 94 % 541015
2020-06-19 17:36:41 FLAPS EXTENSION 96 % 551013
2020-06-19 17:36:41 FLAPS EXTENSION 98 % 551012
2020-06-19 17:36:42 FLAPS EXTENSION 100 % 551010
2020-06-19 17:36:42 FLAPS EXTENSION 100 % 561009
2020-06-19 17:38:47 CRUISE61302
2020-06-19 17:39:17 DESCEND57157
2020-06-19 17:39:55 LANDING5467
2020-06-19 17:40:19 TAXI TO THE GATE2066
2020-06-19 17:40:26 FLAPS EXTENSION 99 % 866
2020-06-19 17:40:26 FLAPS EXTENSION 97 % 866
2020-06-19 17:40:26 FLAPS EXTENSION 95 % 766
2020-06-19 17:40:27 FLAPS EXTENSION 93 % 766
2020-06-19 17:40:27 FLAPS EXTENSION 91 % 766
2020-06-19 17:40:27 FLAPS EXTENSION 89 % 766
2020-06-19 17:40:27 FLAPS EXTENSION 86 % 766
2020-06-19 17:40:27 FLAPS EXTENSION 85 % 666
2020-06-19 17:40:27 FLAPS EXTENSION 83 % 666
2020-06-19 17:40:27 FLAPS EXTENSION 81 % 666
2020-06-19 17:40:28 FLAPS EXTENSION 79 % 566
2020-06-19 17:40:28 FLAPS EXTENSION 77 % 566
2020-06-19 17:40:28 FLAPS EXTENSION 75 % 466
2020-06-19 17:40:28 FLAPS EXTENSION 73 % 366
2020-06-19 17:40:28 FLAPS EXTENSION 71 % 366
2020-06-19 17:40:28 FLAPS EXTENSION 69 % 266
2020-06-19 17:40:29 FLAPS EXTENSION 67 % 266
2020-06-19 17:40:29 FLAPS EXTENSION 65 % 166
2020-06-19 17:40:29 FLAPS EXTENSION 63 % 166
2020-06-19 17:40:29 FLAPS EXTENSION 61 % 066
2020-06-19 17:40:29 FLAPS EXTENSION 59 % 066
2020-06-19 17:40:29 FLAPS EXTENSION 57 % 066
2020-06-19 17:40:30 FLAPS EXTENSION 55 % 066
2020-06-19 17:40:30 FLAPS EXTENSION 54 % 066
2020-06-19 17:40:30 FLAPS EXTENSION 52 % 066
2020-06-19 17:40:30 FLAPS EXTENSION 50 % 066
2020-06-19 17:40:30 FLAPS EXTENSION 47 % 066
2020-06-19 17:40:30 FLAPS EXTENSION 46 % 066
2020-06-19 17:40:30 FLAPS EXTENSION 44 % 066
2020-06-19 17:40:31 FLAPS EXTENSION 43 % 066
2020-06-19 17:40:31 FLAPS EXTENSION 41 % 066
2020-06-19 17:40:31 FLAPS EXTENSION 39 % 066
2020-06-19 17:40:31 FLAPS EXTENSION 37 % 066
2020-06-19 17:40:31 FLAPS EXTENSION 35 % 066
2020-06-19 17:40:31 FLAPS EXTENSION 34 % 066
2020-06-19 17:40:31 FLAPS EXTENSION 32 % 066
2020-06-19 17:40:32 FLAPS EXTENSION 30 % 066
2020-06-19 17:40:32 FLAPS EXTENSION 29 % 066
2020-06-19 17:40:32 FLAPS EXTENSION 27 % 066
2020-06-19 17:40:32 FLAPS EXTENSION 26 % 066
2020-06-19 17:40:32 FLAPS EXTENSION 23 % 066
2020-06-19 17:40:32 FLAPS EXTENSION 21 % 066
2020-06-19 17:40:32 FLAPS EXTENSION 20 % 066
2020-06-19 17:40:33 FLAPS EXTENSION 18 % 066
2020-06-19 17:40:33 FLAPS EXTENSION 16 % 066
2020-06-19 17:40:33 FLAPS EXTENSION 15 % 066
2020-06-19 17:40:33 FLAPS EXTENSION 13 % 066
2020-06-19 17:40:33 FLAPS EXTENSION 11 % 066
2020-06-19 17:40:33 FLAPS EXTENSION 9 % 066
2020-06-19 17:40:33 FLAPS EXTENSION 7 % 066
2020-06-19 17:40:34 FLAPS EXTENSION 5 % 066
2020-06-19 17:40:34 FLAPS EXTENSION 4 % 066
2020-06-19 17:40:34 FLAPS EXTENSION 2 % 066
2020-06-19 17:40:34 FLAPS EXTENSION 0 % 066
2020-06-19 17:44:33 STOPPING ENGINE 1 066
 ACARS DATA
DATE IASGSALTITUDEFUEL CONSUMED OATFLIGHT STATUS
2020-06-19 16:56:4210258119BOARDING
2020-06-19 16:57:4210258119BOARDING
2020-06-19 16:58:4200258119BOARDING
2020-06-19 16:59:4200258119BOARDING
2020-06-19 17:00:4210258119BOARDING
2020-06-19 17:01:4210258219BOARDING
2020-06-19 17:02:4200258219BOARDING
2020-06-19 17:03:4200258319BOARDING
2020-06-19 17:04:421615258519TAXI TO THE RWY
2020-06-19 17:05:4298258619TAXI TO THE RWY
2020-06-19 17:06:4210258619TAXI TO THE RWY
2020-06-19 17:07:4210258719TAXI TO THE RWY
2020-06-19 17:08:423433259819TAXI TO THE RWY
2020-06-19 17:09:4249475351118CLIMBING
2020-06-19 17:10:4263649391427CLIMBING
2020-06-19 17:11:42586212181527CLIMBING
2020-06-19 17:12:42616313881726CLIMBING
2020-06-19 17:13:42626716061826CRUISE
2020-06-19 17:14:42666919222025CLIMBING
2020-06-19 17:15:42616423652223CLIMBING
2020-06-19 17:16:42646627632323CLIMBING
2020-06-19 17:17:42677031562522CLIMBING
2020-06-19 17:18:42686835712721CLIMBING
2020-06-19 17:19:42666839702920CLIMBING
2020-06-19 17:20:42657143333119CRUISE
2020-06-19 17:21:42666946943218CLIMBING
2020-06-19 17:22:42656650403417CLIMBING
2020-06-19 17:23:42717452543617CLIMBING
2020-06-19 17:24:42859052623717CRUISE
2020-06-19 17:25:42869253493816CRUISE
2020-06-19 17:26:42889753704016CRUISE
2020-06-19 17:27:42949953804116CRUISE
2020-06-19 17:28:429510352984316CRUISE
2020-06-19 17:29:429710252164417CRUISE
2020-06-19 17:30:4210110650814517CRUISE
2020-06-19 17:31:4210010449624717DESCEND
2020-06-19 17:32:42959643844819DESCEND
2020-06-19 17:33:42708338554820DESCEND
2020-06-19 17:34:42727829374922DESCEND
2020-06-19 17:35:42788119195025DESCEND
2020-06-19 17:36:42555810045127DESCEND
2020-06-19 17:37:4259595685228DESCEND
2020-06-19 17:38:4257623095328DESCEND
2020-06-19 17:39:425055775429DESCEND
2020-06-19 17:40:4201655529TAXI TO THE GATE
2020-06-19 17:41:4200655629TAXI TO THE GATE
2020-06-19 17:42:4200655729TAXI TO THE GATE
2020-06-19 17:43:4298655929TAXI TO THE GATE
2020-06-19 17:44:4200655929TAXI TO THE GATE